createdAt,value
2022-11-15T00:03:07.917Z,24.33
2022-11-15T00:06:28.183Z,24.00
2022-11-15T00:09:48.805Z,25.83
2022-11-15T00:13:12.741Z,22.67
2022-11-15T00:16:32.625Z,23.70
2022-11-15T00:19:52.729Z,25.87
2022-11-15T00:23:12.701Z,29.23
2022-11-15T00:26:32.890Z,26.57
2022-11-15T00:29:53.230Z,23.13
2022-11-15T00:33:13.283Z,23.27
2022-11-15T00:36:36.216Z,22.90
2022-11-15T00:39:56.617Z,25.40
2022-11-15T00:43:16.572Z,25.27
2022-11-15T00:46:36.546Z,24.07
2022-11-15T00:49:56.574Z,24.00
2022-11-15T00:53:17.411Z,25.20
2022-11-15T00:56:37.632Z,23.67
2022-11-15T00:59:57.776Z,27.20
2022-11-15T01:03:17.763Z,23.27
2022-11-15T01:06:38.142Z,23.70
2022-11-15T01:09:58.056Z,22.80
2022-11-15T01:13:17.869Z,28.23
2022-11-15T01:16:37.841Z,26.70
2022-11-15T01:19:58.150Z,20.83
2022-11-15T01:23:18.539Z,22.40
2022-11-15T01:26:38.439Z,22.43
2022-11-15T01:29:58.988Z,21.27
2022-11-15T01:33:19.628Z,26.47
2022-11-15T01:36:39.912Z,24.00
2022-11-15T01:39:59.793Z,26.83
2022-11-15T01:43:24.403Z,27.47
2022-11-15T01:46:47.672Z,26.53
2022-11-15T01:50:13.213Z,25.07
2022-11-15T01:53:34.633Z,21.93
2022-11-15T01:56:58.296Z,21.90
2022-11-15T02:00:18.752Z,20.97
2022-11-15T02:03:47.096Z,23.53
2022-11-15T02:07:08.160Z,20.70
2022-11-15T02:10:28.369Z,20.50
2022-11-15T02:13:48.594Z,18.90
2022-11-15T02:17:26.295Z,18.67
2022-11-15T02:20:46.515Z,19.57
2022-11-15T02:24:25.808Z,17.50
2022-11-15T02:27:45.701Z,21.37
2022-11-15T02:31:14.961Z,21.40
2022-11-15T02:34:34.807Z,22.93
2022-11-15T02:37:58.036Z,24.43
2022-11-15T02:41:21.114Z,22.03
2022-11-15T02:44:44.708Z,18.53
2022-11-15T02:48:05.849Z,19.27
2022-11-15T02:51:25.947Z,19.50
2022-11-15T02:54:56.344Z,19.63
2022-11-15T02:58:22.736Z,19.20
2022-11-15T03:01:45.599Z,19.50
2022-11-15T03:05:10.389Z,20.37
2022-11-15T03:08:33.508Z,20.93
2022-11-15T03:11:57.947Z,22.07
2022-11-15T03:15:32.657Z,24.27
2022-11-15T03:19:03.526Z,20.50
2022-11-15T03:22:25.800Z,20.33
2022-11-15T03:25:48.370Z,24.30
2022-11-15T03:29:17.358Z,18.77
2022-11-15T03:32:39.905Z,19.13
2022-11-15T03:36:00.127Z,18.03
2022-11-15T03:39:20.964Z,18.90
2022-11-15T03:42:44.050Z,20.07
2022-11-15T03:46:08.339Z,22.03
2022-11-15T03:49:30.528Z,25.03
2022-11-15T03:52:50.955Z,22.60
2022-11-15T03:56:11.212Z,22.93
2022-11-15T03:59:31.184Z,23.17
2022-11-15T04:02:51.063Z,22.27
2022-11-15T04:06:11.288Z,21.67
2022-11-15T04:09:31.035Z,20.87
2022-11-15T04:12:51.571Z,22.80
2022-11-15T04:16:11.765Z,20.90
2022-11-15T04:19:50.808Z,20.37
2022-11-15T04:23:31.492Z,18.60
2022-11-15T04:26:51.910Z,21.07
2022-11-15T04:30:12.082Z,20.27
2022-11-15T04:33:32.384Z,20.43
2022-11-15T04:37:11.255Z,20.73
2022-11-15T04:40:31.311Z,20.87
2022-11-15T04:43:51.198Z,25.03
2022-11-15T04:47:11.597Z,19.63
2022-11-15T04:50:34.365Z,22.80
2022-11-15T04:53:58.094Z,23.17
2022-11-15T04:57:18.144Z,20.90
2022-11-15T05:00:37.958Z,24.13
2022-11-15T05:04:17.176Z,23.27
2022-11-15T05:07:37.285Z,31.13
2022-11-15T05:10:57.619Z,25.53
2022-11-15T05:14:17.759Z,23.83
2022-11-15T05:17:37.999Z,22.40
2022-11-15T05:21:03.833Z,27.73
2022-11-15T05:24:23.990Z,26.83
2022-11-15T05:27:43.945Z,27.47
2022-11-15T05:31:04.440Z,30.77
2022-11-15T05:34:26.633Z,32.47
2022-11-15T05:37:47.310Z,31.57
2022-11-15T05:41:07.339Z,35.43
2022-11-15T05:44:28.351Z,34.67
2022-11-15T05:47:49.309Z,30.00
2022-11-15T05:51:09.420Z,23.23
2022-11-15T05:54:29.228Z,29.30
2022-11-15T05:57:49.693Z,32.07
2022-11-15T06:01:10.162Z,27.27
2022-11-15T06:04:30.217Z,29.27
2022-11-15T06:07:50.492Z,27.40
2022-11-15T06:11:10.389Z,30.70
2022-11-15T06:14:31.061Z,31.13
2022-11-15T06:17:51.458Z,34.97
2022-11-15T06:21:11.722Z,39.10
2022-11-15T06:24:31.649Z,27.93
2022-11-15T06:27:55.453Z,31.20
2022-11-15T06:31:16.051Z,33.90
2022-11-15T06:34:37.034Z,31.70
2022-11-15T06:38:02.393Z,51.07
2022-11-15T06:41:22.739Z,28.40
2022-11-15T06:44:42.876Z,20.50
2022-11-15T06:48:03.217Z,23.90
2022-11-15T06:51:23.556Z,17.30
2022-11-15T06:54:43.749Z,17.83
2022-11-15T06:58:03.620Z,20.43
2022-11-15T07:01:24.052Z,14.73
2022-11-15T07:04:44.238Z,15.83
2022-11-15T07:08:04.314Z,15.70
2022-11-15T07:11:24.461Z,22.83
2022-11-15T07:14:44.319Z,19.83
2022-11-15T07:18:05.038Z,18.87
2022-11-15T07:21:27.663Z,16.03
2022-11-15T07:24:48.083Z,19.67
2022-11-15T07:28:08.421Z,26.37
2022-11-15T07:31:28.636Z,22.63
2022-11-15T07:34:48.517Z,20.27
2022-11-15T07:38:08.994Z,18.27
2022-11-15T07:41:30.174Z,19.60
2022-11-15T07:44:50.341Z,14.77
2022-11-15T07:48:10.571Z,19.57
2022-11-15T07:51:30.698Z,13.43
2022-11-15T07:54:50.655Z,62.07
2022-11-15T07:58:12.219Z,22.37
2022-11-15T08:01:32.212Z,20.87
2022-11-15T08:04:52.313Z,16.97
2022-11-15T08:08:13.086Z,12.50
2022-11-15T08:11:32.883Z,18.23
2022-11-15T08:14:53.305Z,14.13
2022-11-15T08:18:14.781Z,14.37
2022-11-15T08:21:36.064Z,12.70
2022-11-15T08:24:56.184Z,16.97
2022-11-15T08:28:17.288Z,11.97
2022-11-15T08:31:37.920Z,19.47
2022-11-15T08:34:57.990Z,32.47
2022-11-15T08:38:17.872Z,20.57
2022-11-15T08:41:38.384Z,20.40
2022-11-15T08:44:58.426Z,37.77
2022-11-15T08:48:18.837Z,26.37
2022-11-15T08:51:39.373Z,18.73
2022-11-15T08:54:59.891Z,32.33
2022-11-15T08:58:19.879Z,19.77
2022-11-15T09:01:39.915Z,22.43
2022-11-15T09:05:00.506Z,21.03
2022-11-15T09:08:46.929Z,15.67
2022-11-15T09:12:02.640Z,18.17
2022-11-15T09:15:23.054Z,20.07
2022-11-15T09:18:43.094Z,14.03
2022-11-15T09:22:06.152Z,15.17
2022-11-15T09:25:26.279Z,17.63
2022-11-15T09:32:24.784Z,38.80
2022-11-15T09:35:45.012Z,24.20
2022-11-15T09:39:05.166Z,21.13
2022-11-15T09:42:25.332Z,27.37
2022-11-15T09:46:14.530Z,15.60
2022-11-15T09:49:39.160Z,39.87
2022-11-15T09:52:50.196Z,41.00
2022-11-15T09:55:55.884Z,18.67
2022-11-15T09:59:15.812Z,19.07
2022-11-15T10:02:36.341Z,22.73
2022-11-15T10:05:42.806Z,38.53
2022-11-15T10:08:53.791Z,20.73
2022-11-15T10:11:55.846Z,30.27
2022-11-15T10:15:11.187Z,21.33
2022-11-15T10:18:22.814Z,32.73
2022-11-15T10:21:33.723Z,21.00
2022-11-15T10:24:36.189Z,26.70
2022-11-15T10:27:38.060Z,22.67
2022-11-15T10:30:41.306Z,30.73
2022-11-15T10:33:42.930Z,19.10
2022-11-15T10:36:54.713Z,32.20
2022-11-15T10:40:06.654Z,32.67
2022-11-15T10:43:11.282Z,33.90
2022-11-15T10:46:45.554Z,24.30
2022-11-15T10:49:53.854Z,29.20
2022-11-15T10:52:55.733Z,27.57
2022-11-15T10:55:59.584Z,32.47
2022-11-15T10:59:01.166Z,28.90
2022-11-15T11:02:02.914Z,48.97
2022-11-15T11:05:24.572Z,38.93
2022-11-15T11:08:26.347Z,32.47
2022-11-15T11:11:48.122Z,30.07
2022-11-15T11:14:49.743Z,26.67
2022-11-15T11:17:51.363Z,36.97
2022-11-15T11:20:59.131Z,37.43
2022-11-15T11:24:04.772Z,32.60
2022-11-15T11:27:09.329Z,33.23
2022-11-15T11:30:15.574Z,35.10
2022-11-15T11:33:17.178Z,30.37
2022-11-15T11:36:23.547Z,27.20
2022-11-15T11:39:25.091Z,28.10
2022-11-15T11:42:26.717Z,22.70
2022-11-15T11:45:46.144Z,25.37
2022-11-15T11:48:59.876Z,27.93
2022-11-15T11:52:04.392Z,26.40
2022-11-15T11:55:26.170Z,24.57
2022-11-15T11:58:33.647Z,26.57
2022-11-15T12:01:37.123Z,30.27
2022-11-15T12:04:41.177Z,24.40
2022-11-15T12:07:43.860Z,26.73
2022-11-15T12:10:48.669Z,27.37
2022-11-15T12:13:51.832Z,24.63
2022-11-15T12:16:53.564Z,33.03
2022-11-15T12:19:59.644Z,23.00
2022-11-15T12:23:05.452Z,29.80
2022-11-15T12:26:13.691Z,23.83
2022-11-15T12:29:26.550Z,29.63
2022-11-15T12:32:30.750Z,29.30
2022-11-15T12:35:38.083Z,24.90
2022-11-15T12:38:48.776Z,34.70
2022-11-15T12:41:56.213Z,30.00
2022-11-15T12:44:59.982Z,23.27
2022-11-15T12:48:16.736Z,29.57
2022-11-15T12:51:20.432Z,26.07
2022-11-15T12:54:25.069Z,28.33
2022-11-15T12:57:31.047Z,25.33
2022-11-15T13:00:32.652Z,30.97
2022-11-15T13:03:34.675Z,25.23
2022-11-15T13:06:43.751Z,28.27
2022-11-15T13:09:45.343Z,27.03
2022-11-15T13:12:46.901Z,28.47
2022-11-15T13:15:55.331Z,33.50
2022-11-15T13:18:58.805Z,41.53
2022-11-15T13:22:18.890Z,30.30
2022-11-15T13:25:23.517Z,31.67
2022-11-15T13:28:37.453Z,30.03
2022-11-15T13:31:41.556Z,29.93
2022-11-15T13:34:52.294Z,33.07
2022-11-15T13:37:55.499Z,27.33
2022-11-15T13:40:58.037Z,33.43
2022-11-15T13:44:00.556Z,34.63
2022-11-15T13:47:06.508Z,33.17
2022-11-15T13:50:12.498Z,32.50
2022-11-15T13:53:14.292Z,35.90
2022-11-15T13:56:17.363Z,42.00
2022-11-15T13:59:26.883Z,39.47
2022-11-15T14:02:31.898Z,41.33
2022-11-15T14:05:33.607Z,36.43
2022-11-15T14:08:36.396Z,36.23
2022-11-15T14:11:38.936Z,34.23
2022-11-15T14:14:46.358Z,45.20
2022-11-15T14:17:50.220Z,37.77
2022-11-15T14:21:06.052Z,35.57
2022-11-15T14:24:17.155Z,33.87
2022-11-15T14:27:23.563Z,41.03
2022-11-15T14:30:25.194Z,37.00
2022-11-15T14:33:34.389Z,33.83
2022-11-15T14:36:35.945Z,34.33
2022-11-15T14:39:37.521Z,32.90
2022-11-15T14:42:39.136Z,32.40
2022-11-15T14:45:41.149Z,39.20
2022-11-15T14:48:42.738Z,30.13
2022-11-15T14:51:44.395Z,34.50
2022-11-15T14:54:46.008Z,39.53
2022-11-15T14:57:47.811Z,35.77
2022-11-15T15:00:49.501Z,35.50
2022-11-15T15:03:53.088Z,34.57
2022-11-15T15:06:54.818Z,33.03
2022-11-15T15:10:11.336Z,40.57
2022-11-15T15:13:19.834Z,35.27
2022-11-15T15:16:21.418Z,30.27
2022-11-15T15:19:26.123Z,37.30
2022-11-15T15:22:29.556Z,36.43
2022-11-15T15:25:35.858Z,41.07
2022-11-15T15:28:39.704Z,40.93
2022-11-15T15:31:41.524Z,41.30
2022-11-15T15:34:43.082Z,38.40
2022-11-15T15:37:45.372Z,42.80
2022-11-15T15:40:46.937Z,37.30
2022-11-15T15:43:49.733Z,38.37
2022-11-15T15:46:51.282Z,47.63
2022-11-15T15:49:53.068Z,39.03
2022-11-15T15:52:56.156Z,40.10
2022-11-15T15:55:57.839Z,42.43
2022-11-15T15:58:59.572Z,40.10
2022-11-15T16:02:01.455Z,43.97
2022-11-15T16:05:03.206Z,41.37
2022-11-15T16:08:05.513Z,36.60
2022-11-15T16:11:07.318Z,38.40
2022-11-15T16:14:09.193Z,43.20
2022-11-15T16:17:17.976Z,42.37
2022-11-15T16:20:31.111Z,41.53
2022-11-15T16:23:32.704Z,46.03
2022-11-15T16:26:39.142Z,46.40
2022-11-15T16:29:40.891Z,50.57
2022-11-15T16:32:42.559Z,52.47
2022-11-15T16:35:44.301Z,51.07
2022-11-15T16:38:46.153Z,46.23
2022-11-15T16:41:47.881Z,56.17
2022-11-15T16:44:49.501Z,59.77
2022-11-15T16:47:51.403Z,69.60
2022-11-15T16:50:57.047Z,67.33
2022-11-15T16:53:58.774Z,66.20
2022-11-15T16:57:00.350Z,64.57
2022-11-15T17:00:01.983Z,60.40
2022-11-15T17:03:03.927Z,57.23
2022-11-15T17:06:05.661Z,57.83
2022-11-15T17:09:11.315Z,59.07
2022-11-15T17:12:12.951Z,67.47
2022-11-15T17:15:14.859Z,60.60
2022-11-15T17:18:16.465Z,54.90
2022-11-15T17:21:19.584Z,53.50
2022-11-15T17:24:21.413Z,56.53
2022-11-15T17:27:23.968Z,52.20
2022-11-15T17:30:28.422Z,53.57
2022-11-15T17:33:31.299Z,53.70
2022-11-15T17:36:33.175Z,57.47
2022-11-15T17:39:34.894Z,70.47
2022-11-15T17:42:36.566Z,71.80
2022-11-15T17:45:40.604Z,69.20
2022-11-15T17:48:43.642Z,86.67
2022-11-15T17:51:49.826Z,58.67
2022-11-15T17:54:51.882Z,58.13
2022-11-15T17:57:53.456Z,55.53
2022-11-15T18:00:55.134Z,68.13
2022-11-15T18:03:57.387Z,65.27
2022-11-15T18:06:59.084Z,68.53
2022-11-15T18:10:00.731Z,71.20
2022-11-15T18:13:02.477Z,81.03
2022-11-15T18:16:07.248Z,62.73
2022-11-15T18:19:14.216Z,64.73
2022-11-15T18:22:22.665Z,59.90
2022-11-15T18:25:24.630Z,61.73
2022-11-15T18:28:44.290Z,57.30
2022-11-15T18:31:50.291Z,50.00
2022-11-15T18:34:52.063Z,47.97
2022-11-15T18:37:55.916Z,46.07
2022-11-15T18:40:58.491Z,54.47
2022-11-15T18:44:10.094Z,51.43
2022-11-15T18:47:11.797Z,44.73
2022-11-15T18:50:15.789Z,42.87
2022-11-15T18:53:19.377Z,43.57
2022-11-15T18:56:23.045Z,45.23
2022-11-15T18:59:28.043Z,44.13
2022-11-15T19:02:30.492Z,53.63
2022-11-15T19:05:32.130Z,45.00
2022-11-15T19:08:35.644Z,84.67
2022-11-15T19:11:39.584Z,42.43
2022-11-15T19:14:44.123Z,45.93
2022-11-15T19:17:45.841Z,38.80
2022-11-15T19:20:50.044Z,39.27
2022-11-15T19:23:54.151Z,37.90
2022-11-15T19:26:56.005Z,40.70
2022-11-15T19:29:57.851Z,43.50
2022-11-15T19:32:59.486Z,45.10
2022-11-15T19:36:02.359Z,47.10
2022-11-15T19:39:09.912Z,36.10
2022-11-15T19:42:11.847Z,32.97
2022-11-15T19:45:13.480Z,34.17
2022-11-15T19:48:15.099Z,36.23
2022-11-15T19:51:19.324Z,46.53
2022-11-15T19:54:21.041Z,38.43
2022-11-15T19:57:25.389Z,44.17
2022-11-15T20:00:27.017Z,46.13
2022-11-15T20:03:32.814Z,48.47
2022-11-15T20:06:39.386Z,45.37
2022-11-15T20:09:41.242Z,45.63
2022-11-15T20:12:43.340Z,45.60
2022-11-15T20:15:47.547Z,49.10
2022-11-15T20:18:52.097Z,49.77
2022-11-15T20:21:53.828Z,46.33
2022-11-15T20:24:55.464Z,51.10
2022-11-15T20:27:57.157Z,38.10
2022-11-15T20:31:04.452Z,41.37
2022-11-15T20:34:09.820Z,35.63
2022-11-15T20:37:11.398Z,44.60
2022-11-15T20:40:13.006Z,44.13
2022-11-15T20:43:16.506Z,50.43
2022-11-15T20:46:18.369Z,49.97
2022-11-15T20:49:24.359Z,51.37
2022-11-15T20:52:27.471Z,50.57
2022-11-15T20:55:29.169Z,53.27
2022-11-15T20:58:31.125Z,57.50
2022-11-15T21:01:33.020Z,56.37
2022-11-15T21:04:35.802Z,51.27
2022-11-15T21:07:37.495Z,44.20
2022-11-15T21:11:00.846Z,51.63
2022-11-15T21:14:07.732Z,44.40
2022-11-15T21:17:10.970Z,49.70
2022-11-15T21:20:12.762Z,42.00
2022-11-15T21:23:14.478Z,43.47
2022-11-15T21:26:18.775Z,45.33
2022-11-15T21:29:21.975Z,44.17
2022-11-15T21:32:23.676Z,44.10
2022-11-15T21:35:25.469Z,48.10
2022-11-15T21:38:28.151Z,42.93
2022-11-15T21:41:30.213Z,39.87
2022-11-15T21:44:32.658Z,44.97
2022-11-15T21:47:34.752Z,44.53
2022-11-15T21:50:36.474Z,42.37
2022-11-15T21:53:38.091Z,47.80
2022-11-15T21:56:39.737Z,38.80
2022-11-15T22:00:01.313Z,35.50
2022-11-15T22:03:02.921Z,29.93
2022-11-15T22:06:04.656Z,33.23
2022-11-15T22:09:06.563Z,30.53
2022-11-15T22:12:08.155Z,31.33
2022-11-15T22:15:09.890Z,32.17
2022-11-15T22:18:12.036Z,31.10
2022-11-15T22:21:14.439Z,33.37
2022-11-15T22:24:16.072Z,37.23
2022-11-15T22:27:17.791Z,40.33
2022-11-15T22:30:19.638Z,35.37
2022-11-15T22:33:22.617Z,40.67
2022-11-15T22:36:27.253Z,42.47
2022-11-15T22:39:34.564Z,40.93
2022-11-15T22:42:36.134Z,42.13
2022-11-15T22:45:37.827Z,43.40
2022-11-15T22:48:39.883Z,49.23
2022-11-15T22:51:41.789Z,51.00
2022-11-15T22:54:43.460Z,46.50
2022-11-15T22:57:46.363Z,49.17
2022-11-15T23:00:48.580Z,50.43
2022-11-15T23:03:50.366Z,54.67
2022-11-15T23:06:52.087Z,53.10
2022-11-15T23:10:16.610Z,51.87
2022-11-15T23:13:18.339Z,51.60
2022-11-15T23:16:23.679Z,45.60
2022-11-15T23:19:25.588Z,46.50
2022-11-15T23:22:45.745Z,47.67
2022-11-15T23:25:47.435Z,47.87
2022-11-15T23:28:49.084Z,41.40
2022-11-15T23:32:09.855Z,46.87
2022-11-15T23:35:11.492Z,47.03
2022-11-15T23:38:13.149Z,46.50
2022-11-15T23:41:14.778Z,45.50
2022-11-15T23:44:16.474Z,44.57
2022-11-15T23:47:18.868Z,52.43
2022-11-15T23:50:20.567Z,49.50
2022-11-15T23:53:22.264Z,54.17
2022-11-15T23:56:24.084Z,49.00
2022-11-15T23:59:25.676Z,49.23
